Main page
METAR-TAF:

METAR-TAF

Airports :

Linköping City Airport

Linköping, Sweden

latitude: 58-24N, longitude: 015-41E, elevation: 52 m

Current weather observation

The report was made 20 minutes ago, at 13:50 UTC
Wind 7 kt from the West, varying between South/Southwest and Northwest
Temperature 15°C
Humidity 31%
Pressure 1022 hPa
Visibility 10 km or more
no clouds below 1500 m and no cumulonimbus

METAR: ESSL 021350Z 28007KT 200V320 CAVOK 15/M02 Q1022

Time: 16:10 (14:10 UTC)

Forecast

The report was made 2 hours and 40 minutes ago, at 11:30 UTC
Forecast valid from 02 at 12 UTC to 02 at 16 UTC
Wind 8 kt from the North/Northwest
Visibility 10 km or more
no clouds below 1500 m and no cumulonimbus
Becoming
from 02 at 14 UTC to 02 at 16 UTC
Wind 10 kt from the West

TAF: ESSL 021130Z 0212/0216 33008KT CAVOK BECMG 0214/0216 27010KT

Weather observations and forecasts of more than 4000 airports (METAR and TAF reports).

The available stations are represented by yellow and red dots on the map.

Hover mouse over dot to see the name of the station.

Then click to see weather observations and forecasts.

To change the map : click on the green buttons with a black cross to zoom in, on the green button with a dash to zoom out, or on the green arrows for adjacent maps.


METAR-TAF: